KTWF/TWF METAR and TAF weather

Enter ICAO airport designator
Station Type Date Time Source
KTWF METAR 2020/06/03 14:53 UTC NOAA

KTWF 031453Z 27007KT 10SM CLR 19/07 A3013 RMK AO2 SLP156 T01940072 53010


Station Type Date Time Source
KTWF Decoded METAR 2020/06/03 14:53 UTC NOAA

JOSLIN FLD-MAGIC VALLEY REGL, ID, United States (KTWF) 42-29N 114-29W 1266M
Jun 03, 2020 - 10:53 AM EDT / 2020.06.03 1453 UTC
Wind: from the W (270 degrees) at 8 MPH (7 KT):0
Visibility: 10 mile(s):0
Sky conditions: clear
Temperature: 66.9 F (19.4 C)
Dew Point: 45.0 F (7.2 C)
Relative Humidity: 45%
Pressure (altimeter): 30.13 in. Hg (1020 hPa)
Pressure tendency: 0.03 inches (1.0 hPa) higher than three hours ago
ob: KTWF 031453Z 27007KT 10SM CLR 19/07 A3013 RMK AO2 SLP156 T01940072 53010
cycle: 15

Station Type Date Time Source
KTWF TAF 2020/06/03 12:42 UTC NOAA

TAF KTWF 031139Z 0312/0412 19007KT P6SM SCT200
FM031800 27014G22KT P6SM BKN200
FM040300 22005KT P6SM SCT200

Example: see airport list